Time;durP1;ratioP1;P1;durP2;ratioP2;P2;SDS_P1;SDS_P2;PMS_P1;PMS_P2;Temp;Humidity;BMP_temperature;BMP_pressure;BME280_temperature;BME280_humidity;BME280_pressure;Samples;Min_cycle;Max_cycle;Signal;HPM_P1;HPM_P2
2022/12/18 00:01:35;;;;;;;14.82;7.47;;;;;;;-6.78;100.00;101498.84;5022640;28;20041;-65
2022/12/18 00:04:07;;;;;;;15.13;5.90;;;;;;;-6.74;100.00;101491.81;5020248;28;20099;-65
2022/12/18 00:06:34;;;;;;;13.83;5.90;;;;;;;-6.69;100.00;101488.19;5020339;28;20407;-65
2022/12/18 00:09:01;;;;;;;19.23;7.07;;;;;;;-6.62;100.00;101493.97;5017840;28;20104;-65
2022/12/18 00:11:29;;;;;;;19.63;5.68;;;;;;;-6.67;100.00;101498.44;5020458;28;20529;-65
2022/12/18 00:13:56;;;;;;;12.98;5.38;;;;;;;-6.70;100.00;101491.66;5016705;28;20037;-65
2022/12/18 00:16:24;;;;;;;14.20;5.50;;;;;;;-6.83;100.00;101488.69;5016631;28;20029;-65
2022/12/18 00:18:51;;;;;;;11.65;4.43;;;;;;;-6.92;100.00;101489.00;5016103;28;20037;-65
2022/12/18 00:21:17;;;;;;;13.27;5.30;;;;;;;-6.98;100.00;101484.06;5017859;28;20034;-64
2022/12/18 00:23:44;;;;;;;14.23;6.68;;;;;;;-6.97;100.00;101493.47;5016638;28;20029;-65
2022/12/18 00:26:30;;;;;;;18.10;5.15;;;;;;;-6.83;100.00;101478.38;5018901;28;20113;-65
2022/12/18 00:28:59;;;;;;;16.45;5.55;;;;;;;-6.87;100.00;101483.69;5017131;28;20033;-65
2022/12/18 00:31:25;;;;;;;11.05;3.03;;;;;;;-6.99;100.00;101487.56;5020443;28;20040;-65
2022/12/18 00:33:51;;;;;;;17.17;5.13;;;;;;;-7.11;100.00;101485.41;5017296;28;20033;-65
2022/12/18 00:36:19;;;;;;;16.20;6.73;;;;;;;-7.20;100.00;101485.69;5017535;28;20398;-65
2022/12/18 00:38:45;;;;;;;14.03;6.73;;;;;;;-7.20;100.00;101488.28;5019227;28;20154;-65
2022/12/18 00:41:12;;;;;;;10.67;4.17;;;;;;;-7.16;100.00;101484.72;5020138;28;20430;-65
2022/12/18 00:43:38;;;;;;;22.10;5.77;;;;;;;-7.16;100.00;101489.88;5013929;28;20467;-65
2022/12/18 00:46:04;;;;;;;18.23;6.00;;;;;;;-7.16;100.00;101480.41;5018382;28;20029;-64
2022/12/18 00:48:30;;;;;;;14.10;6.03;;;;;;;-7.20;100.00;101463.38;5017501;28;20083;-65
2022/12/18 00:50:55;;;;;;;14.43;5.17;;;;;;;-7.22;100.00;101462.56;5019888;28;20033;-65
2022/12/18 00:53:20;;;;;;;24.30;5.80;;;;;;;-7.17;100.00;101460.69;5020957;28;20037;-65
2022/12/18 00:55:46;;;;;;;15.83;5.90;;;;;;;-7.11;100.00;101468.19;5018763;28;20034;-65
2022/12/18 00:58:13;;;;;;;15.90;6.77;;;;;;;-7.00;100.00;101469.53;5020735;28;20080;-65
2022/12/18 01:00:38;;;;;;;18.03;5.67;;;;;;;-7.07;100.00;101468.94;5015162;28;20030;-65
2022/12/18 01:03:05;;;;;;;22.47;7.47;;;;;;;-7.06;100.00;101473.19;5020348;28;20087;-65
2022/12/18 01:05:30;;;;;;;18.60;6.37;;;;;;;-6.92;100.00;101470.94;5015993;28;20034;-65
2022/12/18 01:07:56;;;;;;;26.07;7.00;;;;;;;-6.74;100.00;101469.44;5018158;28;20113;-65
2022/12/18 01:10:22;;;;;;;17.40;6.37;;;;;;;-6.76;100.00;101462.66;5025419;28;20459;-65
2022/12/18 01:12:48;;;;;;;11.80;5.03;;;;;;;-6.85;100.00;101454.38;5016445;28;20033;-64
2022/12/18 01:15:14;;;;;;;14.77;5.93;;;;;;;-6.82;100.00;101456.00;5019219;28;20469;-65
2022/12/18 01:17:40;;;;;;;15.82;6.15;;;;;;;-6.85;100.00;101454.38;5017247;28;20401;-65
2022/12/18 01:20:06;;;;;;;18.33;6.63;;;;;;;-6.74;100.00;101448.81;5022961;28;20075;-65
2022/12/18 01:22:35;;;;;;;20.00;6.80;;;;;;;-6.49;100.00;101445.31;5015959;28;20033;-65
2022/12/18 01:25:01;;;;;;;18.43;6.97;;;;;;;-6.44;100.00;101441.66;5021093;28;20044;-64
2022/12/18 01:27:26;;;;;;;15.18;6.10;;;;;;;-6.47;100.00;101439.22;5022270;28;20033;-65
2022/12/18 01:29:51;;;;;;;13.77;4.70;;;;;;;-6.45;100.00;101437.41;5017686;28;20037;-65
2022/12/18 01:32:17;;;;;;;17.77;6.73;;;;;;;-6.44;100.00;101439.09;5016971;28;20485;-65
2022/12/18 01:34:42;;;;;;;16.00;5.93;;;;;;;-6.49;100.00;101425.53;5018064;28;20128;-65
2022/12/18 01:37:08;;;;;;;20.50;5.47;;;;;;;-6.55;100.00;101427.50;5016396;28;20049;-65
2022/12/18 01:39:33;;;;;;;18.30;7.30;;;;;;;-6.47;100.00;101423.72;5020094;28;20075;-65
2022/12/18 01:42:02;;;;;;;16.55;6.43;;;;;;;-6.34;100.00;101420.69;5014540;28;20366;-65
2022/12/18 01:45:04;;;;;;;20.33;6.55;;;;;;;-6.22;100.00;101427.91;5015090;28;20037;-65
2022/12/18 01:47:47;;;;;;;17.05;6.03;;;;;;;-6.15;100.00;101424.22;5013590;28;20065;-65
2022/12/18 01:50:16;;;;;;;17.45;7.28;;;;;;;-6.00;100.00;101425.34;5016577;28;20038;-65
2022/12/18 01:52:51;;;;;;;15.93;6.97;;;;;;;-5.60;100.00;101427.13;5013551;28;20057;-65
2022/12/18 01:55:20;;;;;;;18.52;6.85;;;;;;;-5.57;100.00;101429.56;5019676;28;20036;-65
2022/12/18 01:57:47;;;;;;;24.67;7.43;;;;;;;-5.61;100.00;101427.16;5020007;28;20502;-65
2022/12/18 02:00:19;;;;;;;21.55;7.20;;;;;;;-5.58;100.00;101427.03;5019118;28;20026;-65
2022/12/18 02:02:46;;;;;;;19.25;7.88;;;;;;;-5.55;100.00;101427.75;5018661;28;20075;-65
2022/12/18 02:05:16;;;;;;;19.92;7.72;;;;;;;-5.60;100.00;101432.28;5013366;28;20032;-65
2022/12/18 02:08:38;;;;;;;18.88;6.93;;;;;;;-5.52;100.00;101434.53;5021600;28;20502;-65
2022/12/18 02:11:36;;;;;;;15.15;5.93;;;;;;;-5.50;100.00;101443.06;5016678;28;20038;-65
2022/12/18 02:14:13;;;;;;;17.38;6.47;;;;;;;-5.38;100.00;101442.53;5018941;28;20121;-65
2022/12/18 02:16:46;;;;;;;17.08;7.95;;;;;;;-5.36;100.00;101434.75;5017294;28;20042;-65
2022/12/18 02:19:29;;;;;;;18.38;6.88;;;;;;;-5.37;100.00;101443.38;5023973;28;20034;-65
2022/12/18 02:22:11;;;;;;;21.85;7.63;;;;;;;-5.21;100.00;101451.31;5027398;28;20127;-65
2022/12/18 02:25:10;;;;;;;17.95;8.30;;;;;;;-5.16;100.00;101444.19;5022814;28;20037;-65
2022/12/18 02:27:39;;;;;;;26.05;8.48;;;;;;;-4.89;100.00;101452.50;5025983;28;20049;-65
2022/12/18 02:30:05;;;;;;;25.10;9.73;;;;;;;-4.73;100.00;101457.84;5026586;28;20420;-65
2022/12/18 02:32:37;;;;;;;19.38;7.60;;;;;;;-4.71;100.00;101461.19;5017198;28;20077;-65
2022/12/18 02:35:05;;;;;;;21.85;7.82;;;;;;;-4.90;100.00;101464.63;5024317;28;20021;-65
2022/12/18 02:37:33;;;;;;;23.25;9.15;;;;;;;-4.92;100.00;101475.94;5020009;28;20430;-65
2022/12/18 02:39:59;;;;;;;29.02;8.18;;;;;;;-4.88;100.00;101477.47;5025917;28;20116;-65
2022/12/18 02:42:27;;;;;;;30.40;8.90;;;;;;;-4.94;100.00;101477.75;5023851;28;20113;-65
2022/12/18 02:44:55;;;;;;;27.17;9.48;;;;;;;-4.91;100.00;101480.19;5022877;28;20360;-65
2022/12/18 02:47:24;;;;;;;21.55;8.70;;;;;;;-5.06;100.00;101476.50;5024072;28;20060;-65
2022/12/18 02:50:13;;;;;;;19.48;7.35;;;;;;;-5.15;100.00;101471.75;5021207;28;20104;-65
2022/12/18 02:52:38;;;;;;;19.25;8.20;;;;;;;-5.19;100.00;101470.19;5025406;28;20091;-65
2022/12/18 02:55:22;;;;;;;19.23;8.00;;;;;;;-5.21;100.00;101465.09;5019892;28;20033;-65
2022/12/18 02:57:53;;;;;;;19.42;7.93;;;;;;;-5.31;100.00;101466.41;5025805;28;20038;-65
2022/12/18 03:00:27;;;;;;;24.90;9.48;;;;;;;-5.19;100.00;101459.84;5025396;28;20462;-65
2022/12/18 03:03:15;;;;;;;26.17;7.75;;;;;;;-5.16;100.00;101441.59;5022742;28;20120;-65
2022/12/18 03:05:48;;;;;;;21.60;8.70;;;;;;;-5.14;100.00;101435.47;5021592;28;20068;-65
2022/12/18 03:08:43;;;;;;;26.85;10.27;;;;;;;-5.06;100.00;101435.13;5021682;28;20033;-65
2022/12/18 03:11:10;;;;;;;23.25;8.50;;;;;;;-5.06;100.00;101432.53;5026316;28;20037;-65
2022/12/18 03:13:48;;;;;;;23.77;8.50;;;;;;;-4.95;100.00;101427.75;5024913;28;20045;-65
2022/12/18 03:16:22;;;;;;;22.60;7.85;;;;;;;-4.90;100.00;101433.56;5036457;28;20044;-65
2022/12/18 03:19:00;;;;;;;22.75;8.55;;;;;;;-4.78;100.00;101424.41;5029784;28;20909;-65
2022/12/18 03:21:35;;;;;;;30.15;9.35;;;;;;;-4.68;100.00;101428.25;5020173;28;20025;-65
2022/12/18 03:24:05;;;;;;;22.95;8.20;;;;;;;-4.71;100.00;101412.88;5015884;28;20096;-65
2022/12/18 03:26:32;;;;;;;30.47;9.77;;;;;;;-4.54;100.00;101419.00;5022463;28;20480;-65
2022/12/18 03:29:06;;;;;;;20.08;9.32;;;;;;;-4.16;100.00;101430.16;5031970;28;20037;-65
2022/12/18 03:31:37;;;;;;;24.10;8.10;;;;;;;-4.12;100.00;101425.69;5030155;28;20556;-65
2022/12/18 03:34:09;;;;;;;26.30;7.97;;;;;;;-4.02;100.00;101422.59;5021253;28;20483;-65
2022/12/18 03:36:34;;;;;;;32.17;10.63;;;;;;;-3.88;100.00;101415.88;5029646;28;20356;-65
2022/12/18 03:39:00;;;;;;;29.60;10.35;;;;;;;-3.84;100.00;101418.25;5027248;28;20053;-66
2022/12/18 03:41:34;;;;;;;25.42;8.48;;;;;;;-3.87;100.00;101417.56;5023522;28;20033;-65
2022/12/18 03:44:06;;;;;;;19.95;8.93;;;;;;;-3.98;100.00;101407.72;5020212;28;20032;-65
2022/12/18 03:47:05;;;;;;;20.75;7.75;;;;;;;-4.02;100.00;101401.03;5023146;28;20184;-65
2022/12/18 03:49:59;;;;;;;20.05;8.15;;;;;;;-4.03;100.00;101394.97;5030067;28;20044;-65
2022/12/18 03:52:35;;;;;;;26.30;8.90;;;;;;;-4.07;100.00;101385.69;5025412;28;20068;-66
2022/12/18 03:55:02;;;;;;;18.58;7.32;;;;;;;-4.12;100.00;101392.84;5021722;28;20101;-65
2022/12/18 03:57:31;;;;;;;23.40;7.18;;;;;;;-4.15;100.00;101392.19;5023959;28;20083;-65
2022/12/18 04:00:02;;;;;;;22.88;8.52;;;;;;;-3.74;100.00;101392.72;5027443;28;20108;-65
2022/12/18 04:02:29;;;;;;;27.35;9.57;;;;;;;-3.87;100.00;101395.09;5021827;28;20029;-65
2022/12/18 04:05:00;;;;;;;18.85;7.03;;;;;;;-3.98;100.00;101394.75;5027064;28;20029;-65
2022/12/18 04:07:26;;;;;;;23.58;7.82;;;;;;;-4.11;100.00;101394.53;5028628;28;20478;-65
2022/12/18 04:09:55;;;;;;;25.35;8.95;;;;;;;-4.27;100.00;101391.00;5022556;28;20103;-65
2022/12/18 04:12:23;;;;;;;19.60;9.13;;;;;;;-4.41;100.00;101378.72;5027025;28;20101;-65
2022/12/18 04:14:49;;;;;;;17.23;7.75;;;;;;;-4.35;100.00;101372.41;5021864;28;20379;-66
2022/12/18 04:17:14;;;;;;;20.52;7.90;;;;;;;-4.20;100.00;101384.63;5025677;28;20022;-65
2022/12/18 04:19:39;;;;;;;24.25;8.27;;;;;;;-4.06;100.00;101373.56;5021742;28;20041;-65
2022/12/18 04:22:04;;;;;;;22.17;9.40;;;;;;;-3.96;100.00;101362.69;5023961;28;20056;-65
2022/12/18 04:24:30;;;;;;;29.50;9.00;;;;;;;-3.89;100.00;101363.22;5031223;28;20483;-65
2022/12/18 04:26:55;;;;;;;20.40;8.05;;;;;;;-3.91;100.00;101366.81;5022055;28;20059;-65
2022/12/18 04:29:20;;;;;;;17.75;7.45;;;;;;;-3.79;100.00;101368.81;5024975;28;20045;-65
2022/12/18 04:31:46;;;;;;;18.63;7.03;;;;;;;-3.74;100.00;101372.84;5012319;28;20025;-65
2022/12/18 04:34:11;;;;;;;23.10;8.77;;;;;;;-3.73;100.00;101377.09;5011566;28;20071;-65
2022/12/18 04:36:36;;;;;;;18.55;8.65;;;;;;;-3.62;100.00;101362.75;5011263;28;20104;-65
2022/12/18 04:39:02;;;;;;;21.23;7.68;;;;;;;-3.51;100.00;101363.06;5015474;28;20081;-65
2022/12/18 04:41:27;;;;;;;32.35;8.35;;;;;;;-3.36;100.00;101356.22;5016755;28;20044;-65
2022/12/18 04:43:52;;;;;;;18.02;6.57;;;;;;;-3.24;100.00;101349.56;5018646;28;20113;-66
2022/12/18 04:46:18;;;;;;;21.38;7.63;;;;;;;-3.13;100.00;101340.28;5023249;28;20033;-65
2022/12/18 04:48:45;;;;;;;19.20;7.40;;;;;;;-3.12;100.00;101322.97;5027695;28;20459;-66
2022/12/18 04:51:11;;;;;;;18.73;7.35;;;;;;;-3.02;100.00;101315.50;5029086;28;20474;-66
2022/12/18 04:53:36;;;;;;;15.63;6.55;;;;;;;-2.95;100.00;101315.09;5032325;28;20035;-65
2022/12/18 04:56:06;;;;;;;13.75;6.35;;;;;;;-2.74;100.00;101309.66;5021689;28;20034;-66
2022/12/18 04:58:32;;;;;;;19.13;7.68;;;;;;;-2.74;100.00;101313.06;5025435;28;20037;-66
2022/12/18 05:00:57;;;;;;;16.30;7.78;;;;;;;-2.73;100.00;101306.16;5023587;28;20048;-65
2022/12/18 05:03:22;;;;;;;23.33;10.10;;;;;;;-2.75;100.00;101295.84;5025753;28;20049;-66
2022/12/18 05:05:51;;;;;;;22.75;8.52;;;;;;;-2.71;100.00;101291.31;5021113;28;20566;-66
2022/12/18 05:08:17;;;;;;;24.60;7.43;;;;;;;-2.73;100.00;101287.97;5019739;28;21163;-66
2022/12/18 05:10:42;;;;;;;22.85;7.25;;;;;;;-2.67;100.00;101269.44;5036036;28;20029;-65
2022/12/18 05:13:08;;;;;;;21.52;7.43;;;;;;;-2.63;100.00;101261.41;5023687;28;20111;-65
2022/12/18 05:15:33;;;;;;;13.45;5.68;;;;;;;-2.65;100.00;101259.81;5021453;28;20364;-65
2022/12/18 05:17:59;;;;;;;16.55;6.47;;;;;;;-2.64;100.00;101258.88;5025687;28;20463;-66
2022/12/18 05:20:25;;;;;;;19.75;7.82;;;;;;;-2.60;100.00;101268.19;5028982;28;20056;-65
2022/12/18 05:22:51;;;;;;;22.95;7.85;;;;;;;-2.61;100.00;101270.84;5028492;28;20083;-65
2022/12/18 05:25:17;;;;;;;21.55;7.65;;;;;;;-2.55;100.00;101273.13;5026740;28;20061;-64
2022/12/18 05:27:43;;;;;;;16.77;7.75;;;;;;;-2.62;100.00;101264.84;5025638;28;20061;-65
2022/12/18 05:30:09;;;;;;;22.08;8.65;;;;;;;-2.67;100.00;101254.72;5023976;28;20037;-64
2022/12/18 05:32:34;;;;;;;19.05;7.20;;;;;;;-2.68;100.00;101241.81;5028386;28;20210;-64
2022/12/18 05:35:00;;;;;;;20.58;6.47;;;;;;;-2.67;100.00;101244.31;5023388;28;20223;-65
2022/12/18 05:37:25;;;;;;;19.92;7.03;;;;;;;-2.58;100.00;101253.38;5030241;28;20486;-64
2022/12/18 05:39:51;;;;;;;13.73;5.82;;;;;;;-2.56;100.00;101256.69;5022919;28;20167;-65
2022/12/18 05:42:16;;;;;;;25.45;8.00;;;;;;;-2.54;100.00;101252.25;5025677;28;20068;-64
2022/12/18 05:44:42;;;;;;;19.20;6.30;;;;;;;-2.58;100.00;101252.50;5018517;28;20034;-64
2022/12/18 05:47:08;;;;;;;19.58;7.35;;;;;;;-2.61;100.00;101253.50;5022031;28;20518;-64
2022/12/18 05:49:33;;;;;;;20.55;7.72;;;;;;;-2.59;100.00;101243.88;5012106;28;20038;-65
2022/12/18 05:51:59;;;;;;;16.65;6.25;;;;;;;-2.48;100.00;101246.72;5024333;28;20032;-64
2022/12/18 05:54:27;;;;;;;19.90;7.60;;;;;;;-2.38;100.00;101240.97;5024981;28;20030;-64
2022/12/18 05:56:52;;;;;;;13.48;4.57;;;;;;;-2.38;100.00;101238.38;5026992;28;20437;-64
2022/12/18 05:59:17;;;;;;;16.08;6.55;;;;;;;-2.30;100.00;101226.59;5025876;28;20033;-65
2022/12/18 06:01:43;;;;;;;16.45;5.93;;;;;;;-2.26;100.00;101230.72;5021931;28;20501;-64
2022/12/18 06:04:08;;;;;;;13.18;6.22;;;;;;;-2.21;100.00;101235.66;5021352;28;20037;-63
2022/12/18 06:06:34;;;;;;;12.73;5.70;;;;;;;-2.20;100.00;101227.75;5017446;28;20318;-64
2022/12/18 06:09:01;;;;;;;13.90;5.65;;;;;;;-2.21;100.00;101220.06;5025857;28;20033;-64
2022/12/18 06:11:26;;;;;;;14.40;5.18;;;;;;;-2.12;100.00;101206.50;5017998;28;20029;-64
2022/12/18 06:13:53;;;;;;;16.08;7.20;;;;;;;-2.09;100.00;101195.09;5023035;28;20039;-64
2022/12/18 06:16:19;;;;;;;11.93;4.95;;;;;;;-2.10;100.00;101198.63;5021476;28;20021;-64
2022/12/18 06:18:44;;;;;;;11.82;4.85;;;;;;;-2.09;100.00;101197.69;5023464;28;20116;-64
2022/12/18 06:21:10;;;;;;;13.73;5.40;;;;;;;-2.06;100.00;101202.72;5024897;28;20059;-64
2022/12/18 06:23:35;;;;;;;15.32;5.85;;;;;;;-2.03;100.00;101190.38;5025903;28;20434;-64
2022/12/18 06:26:06;;;;;;;21.60;6.78;;;;;;;-1.93;100.00;101200.22;5028705;28;20112;-63
2022/12/18 06:28:31;;;;;;;22.23;7.07;;;;;;;-1.90;100.00;101192.25;5020601;28;20072;-64
2022/12/18 06:30:57;;;;;;;24.15;6.40;;;;;;;-1.90;100.00;101187.88;5024688;28;20477;-63
2022/12/18 06:33:26;;;;;;;15.30;7.53;;;;;;;-1.79;100.00;101184.59;5027377;28;20036;-63
2022/12/18 06:35:51;;;;;;;9.25;5.05;;;;;;;-1.72;100.00;101185.91;5035241;28;20040;-64
2022/12/18 06:38:16;;;;;;;12.68;5.30;;;;;;;-1.67;100.00;101183.84;5025469;28;20495;-64
2022/12/18 06:40:42;;;;;;;17.60;6.35;;;;;;;-1.68;100.00;101182.16;5031273;28;20459;-63
2022/12/18 06:43:07;;;;;;;12.50;5.60;;;;;;;-1.62;100.00;101179.22;5028971;28;20471;-63
2022/12/18 06:45:33;;;;;;;15.93;5.68;;;;;;;-1.58;100.00;101174.66;5029571;28;20037;-63
2022/12/18 06:47:58;;;;;;;20.55;6.70;;;;;;;-1.52;100.00;101178.63;5029162;28;20103;-63
2022/12/18 06:50:24;;;;;;;16.50;6.20;;;;;;;-1.54;100.00;101178.72;5031883;28;20115;-63
2022/12/18 06:52:49;;;;;;;16.80;6.18;;;;;;;-1.57;100.00;101177.16;5031996;28;20129;-63
2022/12/18 06:55:14;;;;;;;17.63;5.22;;;;;;;-1.56;100.00;101171.00;5024756;28;20087;-62
2022/12/18 06:57:40;;;;;;;14.32;6.60;;;;;;;-1.52;100.00;101184.69;5029623;28;20475;-62
2022/12/18 07:00:06;;;;;;;12.75;6.13;;;;;;;-1.49;100.00;101178.44;5020541;28;20030;-63
2022/12/18 07:02:32;;;;;;;11.88;5.85;;;;;;;-1.46;100.00;101173.06;5022443;28;20044;-63
2022/12/18 07:04:57;;;;;;;13.90;6.55;;;;;;;-1.45;100.00;101167.75;5022894;28;20042;-62
2022/12/18 07:07:23;;;;;;;15.13;4.97;;;;;;;-1.43;100.00;101157.25;5027964;28;20459;-62
2022/12/18 07:09:51;;;;;;;14.15;5.75;;;;;;;-1.37;100.00;101162.91;5022816;28;20228;-62
2022/12/18 07:12:17;;;;;;;13.40;5.97;;;;;;;-1.39;100.00;101166.53;5025764;28;20522;-63
2022/12/18 07:14:43;;;;;;;14.73;6.28;;;;;;;-1.35;100.00;101160.19;5021450;28;20092;-62
2022/12/18 07:17:08;;;;;;;18.38;6.93;;;;;;;-1.34;100.00;101148.88;5029865;28;20117;-62
2022/12/18 07:19:34;;;;;;;16.27;6.47;;;;;;;-1.35;100.00;101144.59;5028471;28;20025;-62
2022/12/18 07:22:00;;;;;;;13.63;5.75;;;;;;;-1.34;100.00;101139.28;5031066;28;20128;-62
2022/12/18 07:24:25;;;;;;;12.40;5.90;;;;;;;-1.27;100.00;101142.31;5019505;28;20034;-63
2022/12/18 07:26:51;;;;;;;16.45;7.10;;;;;;;-1.24;100.00;101130.88;5025737;28;20033;-63
2022/12/18 07:29:16;;;;;;;14.82;6.25;;;;;;;-1.23;100.00;101125.59;5023208;28;20534;-62
2022/12/18 07:31:41;;;;;;;10.30;4.85;;;;;;;-1.19;100.00;101126.22;5023543;28;20035;-62
2022/12/18 07:34:11;;;;;;;17.73;6.53;;;;;;;-1.19;100.00;101116.66;5026186;28;20035;-62
2022/12/18 07:36:37;;;;;;;20.40;6.93;;;;;;;-1.22;100.00;101122.03;5015299;28;20379;-61
2022/12/18 07:39:02;;;;;;;19.60;6.47;;;;;;;-1.19;100.00;101115.81;5021495;28;20033;-61
2022/12/18 07:41:28;;;;;;;15.50;6.68;;;;;;;-1.21;100.00;101113.31;5024980;28;20498;-62
2022/12/18 07:43:53;;;;;;;13.35;5.35;;;;;;;-1.21;100.00;101115.09;5025360;28;20471;-62
2022/12/18 07:46:19;;;;;;;14.23;6.15;;;;;;;-1.18;100.00;101107.91;5022236;28;20118;-62
2022/12/18 07:48:44;;;;;;;15.43;5.45;;;;;;;-1.14;100.00;101114.56;5024530;28;20045;-61
2022/12/18 07:51:13;;;;;;;15.98;5.93;;;;;;;-1.05;100.00;101096.72;5023195;28;20437;-59
2022/12/18 07:53:38;;;;;;;13.60;7.00;;;;;;;-1.06;100.00;101093.25;5023351;28;20513;-60
2022/12/18 07:56:07;;;;;;;13.95;6.38;;;;;;;-1.00;100.00;101089.44;5019669;28;20029;-62
2022/12/18 07:58:34;;;;;;;11.07;5.82;;;;;;;-1.07;100.00;101088.16;5022773;28;20083;-61
2022/12/18 08:01:07;;;;;;;19.52;6.68;;;;;;;-1.05;100.00;101096.72;5024196;28;20426;-58
2022/12/18 08:03:33;;;;;;;15.07;5.95;;;;;;;-1.06;100.00;101115.84;5025056;28;20029;-59
2022/12/18 08:06:01;;;;;;;13.63;5.60;;;;;;;-1.02;100.00;101123.34;5026073;28;20022;-60
2022/12/18 08:08:26;;;;;;;16.40;6.25;;;;;;;-1.00;100.00;101111.09;5026977;28;20415;-61
2022/12/18 08:10:51;;;;;;;14.77;5.70;;;;;;;-0.97;100.00;101104.84;5020952;28;20037;-61
2022/12/18 08:13:17;;;;;;;15.40;6.35;;;;;;;-0.98;100.00;101108.34;5019050;28;20057;-61
2022/12/18 08:15:42;;;;;;;16.35;5.70;;;;;;;-0.98;100.00;101101.41;5015890;28;20038;-61
2022/12/18 08:18:07;;;;;;;17.38;6.25;;;;;;;-0.94;100.00;101115.03;5012762;28;20100;-60
2022/12/18 08:20:33;;;;;;;17.40;7.43;;;;;;;-0.94;100.00;101117.66;5015956;28;20347;-62
2022/12/18 08:22:58;;;;;;;17.05;7.43;;;;;;;-0.91;100.00;101109.63;5014902;28;20036;-58
2022/12/18 08:25:23;;;;;;;15.80;6.88;;;;;;;-0.91;100.00;101113.06;5017054;28;20549;-60
2022/12/18 08:27:49;;;;;;;14.57;6.72;;;;;;;-0.88;100.00;101107.69;5008994;28;20071;-58
2022/12/18 08:30:14;;;;;;;21.58;7.20;;;;;;;-0.85;100.00;101114.44;5015535;28;20068;-61
2022/12/18 08:32:40;;;;;;;16.60;7.70;;;;;;;-0.86;100.00;101117.13;5020672;28;20037;-59
2022/12/18 08:35:05;;;;;;;15.27;7.20;;;;;;;-0.83;100.00;101117.75;5023476;28;20216;-61
2022/12/18 08:37:31;;;;;;;17.08;6.38;;;;;;;-0.82;100.00;101114.25;5022379;28;20061;-61
2022/12/18 08:39:56;;;;;;;16.80;6.00;;;;;;;-0.79;100.00;101108.81;5025437;28;20364;-60
2022/12/18 08:45:06;;;;;;;20.10;5.88;;;;;;;-0.76;100.00;101120.81;5023280;28;20121;-59
2022/12/18 08:47:31;;;;;;;10.05;4.93;;;;;;;-0.73;100.00;101124.03;5029951;28;20547;-59
2022/12/18 08:49:57;;;;;;;17.23;7.85;;;;;;;-0.74;100.00;101122.38;5017508;28;20471;-60
2022/12/18 08:52:22;;;;;;;14.55;6.90;;;;;;;-0.70;100.00;101120.38;5018095;28;20037;-60
2022/12/18 08:54:47;;;;;;;11.80;5.43;;;;;;;-0.67;100.00;101118.44;5015908;28;20057;-61
2022/12/18 08:57:13;;;;;;;15.38;6.60;;;;;;;-0.59;100.00;101125.72;5017351;28;20695;-60
2022/12/18 08:59:38;;;;;;;16.90;5.85;;;;;;;-0.57;100.00;101123.81;5019110;28;20391;-61
2022/12/18 09:02:03;;;;;;;17.00;8.40;;;;;;;-0.58;100.00;101122.16;5016153;28;20461;-58
2022/12/18 09:04:29;;;;;;;18.50;6.85;;;;;;;-0.56;100.00;101124.69;5016445;28;20475;-59
2022/12/18 09:06:54;;;;;;;18.98;6.43;;;;;;;-0.55;100.00;101123.75;5024716;28;20084;-55
2022/12/18 09:09:19;;;;;;;11.30;6.10;;;;;;;-0.54;100.00;101117.56;5026015;28;20463;-57
2022/12/18 09:11:45;;;;;;;15.55;5.43;;;;;;;-0.53;100.00;101119.25;5020644;28;20053;-58
2022/12/18 09:14:10;;;;;;;17.77;6.68;;;;;;;-0.54;100.00;101114.97;5028160;28;20520;-58
2022/12/18 09:16:36;;;;;;;11.15;5.00;;;;;;;-0.47;100.00;101124.03;5018976;28;20060;-60
2022/12/18 09:19:03;;;;;;;16.02;6.65;;;;;;;-0.45;100.00;101123.00;5018388;28;20037;-59
2022/12/18 09:21:34;;;;;;;10.05;5.50;;;;;;;-0.47;100.00;101130.09;5025707;28;20068;-55
2022/12/18 09:24:00;;;;;;;18.48;7.35;;;;;;;-0.43;100.00;101137.72;5027252;28;20087;-58
2022/12/18 09:26:26;;;;;;;13.77;5.72;;;;;;;-0.43;100.00;101140.31;5026313;28;20030;-57
2022/12/18 09:28:52;;;;;;;17.02;6.18;;;;;;;-0.47;100.00;101137.91;5020002;28;20049;-60
2022/12/18 09:31:20;;;;;;;12.07;5.32;;;;;;;-0.45;100.00;101122.19;5014908;28;20032;-60
2022/12/18 09:33:45;;;;;;;17.20;6.50;;;;;;;-0.48;100.00;101125.81;5022000;28;20029;-60
2022/12/18 09:36:13;;;;;;;16.27;8.00;;;;;;;-0.48;100.00;101122.41;5024993;28;20060;-56
2022/12/18 09:38:38;;;;;;;13.45;5.03;;;;;;;-0.42;100.00;101127.19;5020634;28;20037;-60
2022/12/18 09:41:23;;;;;;;14.77;6.13;;;;;;;-0.36;100.00;101120.72;5022745;28;20034;-57
2022/12/18 09:43:53;;;;;;;13.77;6.35;;;;;;;-0.36;100.00;101124.16;5018865;28;20470;-60
2022/12/18 09:46:26;;;;;;;17.60;6.63;;;;;;;-0.33;100.00;101121.34;5015033;28;20061;-59
2022/12/18 09:48:54;;;;;;;18.33;6.78;;;;;;;-0.34;100.00;101124.88;5012031;28;20133;-59
2022/12/18 09:51:27;;;;;;;15.13;5.93;;;;;;;-0.30;100.00;101131.56;5019982;28;20040;-58
2022/12/18 09:53:59;;;;;;;16.15;6.82;;;;;;;-0.26;100.00;101127.81;5017725;28;20018;-61
2022/12/18 09:56:27;;;;;;;13.60;5.82;;;;;;;-0.24;100.00;101112.06;5019057;28;20152;-60
2022/12/18 09:58:59;;;;;;;17.98;6.80;;;;;;;-0.14;100.00;101102.66;5016428;28;20022;-61
2022/12/18 10:01:24;;;;;;;15.90;6.88;;;;;;;-0.12;100.00;101099.97;5024056;28;20067;-57
2022/12/18 10:03:51;;;;;;;15.63;7.03;;;;;;;-0.08;100.00;101109.22;5019837;28;20487;-59
2022/12/18 10:06:27;;;;;;;13.52;5.50;;;;;;;-0.05;100.00;101114.25;5022693;28;20036;-58
2022/12/18 10:09:18;;;;;;;12.77;5.22;;;;;;;-0.01;100.00;101115.69;5018840;28;20068;-61
2022/12/18 10:12:09;;;;;;;9.75;5.18;;;;;;;0.04;100.00;101110.16;5024946;28;20037;-60
2022/12/18 10:14:50;;;;;;;21.02;7.05;;;;;;;0.07;100.00;101094.28;5031515;28;20479;-59
2022/12/18 10:17:28;;;;;;;17.02;6.28;;;;;;;0.15;100.00;101084.97;5023172;28;20131;-57
2022/12/18 10:20:01;;;;;;;15.40;6.45;;;;;;;0.16;100.00;101067.56;5022472;28;20798;-59
2022/12/18 10:22:45;;;;;;;14.50;5.82;;;;;;;0.17;100.00;101059.63;5025733;28;20064;-61
2022/12/18 10:25:21;;;;;;;20.45;8.48;;;;;;;0.20;100.00;101042.91;5026965;28;20033;-57
2022/12/18 10:27:48;;;;;;;14.73;6.45;;;;;;;0.26;100.00;101039.88;5030195;28;20029;-58
2022/12/18 10:30:18;;;;;;;15.77;6.68;;;;;;;0.26;100.00;101039.03;5030704;28;20033;-61
2022/12/18 10:32:44;;;;;;;19.80;5.70;;;;;;;0.24;100.00;101033.13;5029327;28;20047;-60
2022/12/18 10:35:24;;;;;;;13.60;5.85;;;;;;;0.26;100.00;101032.06;5027172;28;20100;-61
2022/12/18 10:38:21;;;;;;;11.95;6.10;;;;;;;0.31;100.00;101036.91;5023602;28;20083;-60
2022/12/18 10:40:52;;;;;;;12.07;6.13;;;;;;;0.31;100.00;101036.91;5029581;28;20083;-62
2022/12/18 10:43:38;;;;;;;9.82;5.07;;;;;;;0.31;100.00;101031.72;5029588;28;20029;-60
2022/12/18 10:46:09;;;;;;;15.55;5.90;;;;;;;0.30;100.00;101017.84;5022038;28;20108;-60
2022/12/18 10:48:47;;;;;;;13.27;5.72;;;;;;;0.31;100.00;101016.06;5029375;28;20045;-61
2022/12/18 10:51:24;;;;;;;21.23;8.85;;;;;;;0.32;100.00;101007.31;5025415;28;20037;-59
2022/12/18 10:54:00;;;;;;;14.10;6.30;;;;;;;0.31;100.00;101003.00;5024593;28;20119;-61
2022/12/18 10:56:28;;;;;;;14.82;6.82;;;;;;;0.33;100.00;100995.91;5026875;28;20033;-61
2022/12/18 10:59:04;;;;;;;16.02;7.63;;;;;;;0.39;100.00;100982.44;5019905;28;20045;-59
2022/12/18 11:01:57;;;;;;;13.23;5.80;;;;;;;0.41;100.00;100977.91;5025229;28;20108;-61
2022/12/18 11:04:25;;;;;;;17.48;6.95;;;;;;;0.42;100.00;100974.38;5028288;28;20025;-61
2022/12/18 11:07:07;;;;;;;18.48;7.53;;;;;;;0.44;100.00;100964.66;5025307;28;20041;-61
2022/12/18 11:09:35;;;;;;;19.20;7.45;;;;;;;0.44;100.00;100959.44;5018115;28;20041;-61
2022/12/18 11:12:18;;;;;;;15.23;6.82;;;;;;;0.48;100.00;100965.25;5027048;28;20105;-61
2022/12/18 11:14:48;;;;;;;17.90;5.75;;;;;;;0.52;100.00;100967.53;5029403;28;20029;-62
2022/12/18 11:17:31;;;;;;;18.65;6.45;;;;;;;0.55;100.00;100956.88;5025942;28;20474;-63
2022/12/18 11:19:58;;;;;;;15.10;7.38;;;;;;;0.51;100.00;100946.75;5026277;28;20053;-61
2022/12/18 11:22:32;;;;;;;13.73;6.38;;;;;;;0.50;100.00;100945.13;5036349;28;20076;-62